Time;durP1;ratioP1;P1;durP2;ratioP2;P2;SDS_P1;SDS_P2;PMS_P1;PMS_P2;Temp;Humidity;BMP_temperature;BMP_pressure;BME280_temperature;BME280_humidity;BME280_pressure;Samples;Min_cycle;Max_cycle;Signal;HPM_P1;HPM_P2
2022/03/14 00:00:00;;;;;;;8.90;7.70;;;;;;;;;;5070510;28;24936;-50
2022/03/14 00:02:25;;;;;;;8.77;7.40;;;;;;;;;;5071271;28;24426;-51
2022/03/14 00:04:51;;;;;;;11.52;7.90;;;;;;;;;;5068274;28;24418;-50
2022/03/14 00:07:16;;;;;;;8.68;7.50;;;;;;;;;;5068200;28;24987;-50
2022/03/14 00:09:41;;;;;;;9.25;7.70;;;;;;;;;;5067880;28;24430;-51
2022/03/14 00:12:08;;;;;;;8.40;7.50;;;;;;;;;;5068049;28;24419;-50
2022/03/14 00:14:34;;;;;;;10.20;8.23;;;;;;;;;;5068197;28;24418;-50
2022/03/14 00:17:02;;;;;;;8.40;7.47;;;;;;;;;;5073784;28;24743;-51
2022/03/14 00:19:29;;;;;;;8.73;7.60;;;;;;;;;;5066957;28;24492;-50
2022/03/14 00:21:54;;;;;;;9.57;8.02;;;;;;;;;;5070645;28;24529;-50
2022/03/14 00:24:20;;;;;;;10.13;7.90;;;;;;;;;;5068670;28;24865;-50
2022/03/14 00:26:45;;;;;;;8.70;7.80;;;;;;;;;;5068647;28;24422;-50
2022/03/14 00:29:10;;;;;;;9.30;7.93;;;;;;;;;;5068785;28;24407;-52
2022/03/14 00:31:35;;;;;;;9.30;8.33;;;;;;;;;;5067581;28;24472;-50
2022/03/14 00:34:01;;;;;;;9.10;7.97;;;;;;;;;;5068041;28;24952;-50
2022/03/14 00:36:27;;;;;;;10.68;8.00;;;;;;;;;;5068343;28;24411;-50
2022/03/14 00:38:53;;;;;;;9.30;8.10;;;;;;;;;;5066934;28;24498;-50
2022/03/14 00:41:18;;;;;;;10.90;8.00;;;;;;;;;;5068051;28;24555;-50
2022/03/14 00:43:43;;;;;;;9.60;8.30;;;;;;;;;;5067775;28;24410;-50
2022/03/14 00:46:08;;;;;;;8.93;8.03;;;;;;;;;;5067308;28;24419;-50
2022/03/14 00:48:35;;;;;;;8.97;7.80;;;;;;;;;;5068106;28;24418;-50
2022/03/14 00:51:01;;;;;;;9.90;8.90;;;;;;;;;;5067834;28;24476;-50
2022/03/14 00:53:27;;;;;;;9.10;7.60;;;;;;;;;;5068708;28;24820;-50
2022/03/14 00:55:52;;;;;;;9.02;8.10;;;;;;;;;;5067648;28;24494;-50
2022/03/14 00:58:17;;;;;;;9.00;8.10;;;;;;;;;;5067356;28;25020;-51
2022/03/14 01:00:43;;;;;;;8.53;7.63;;;;;;;;;;5067578;28;24407;-50
2022/03/14 01:03:08;;;;;;;9.60;8.32;;;;;;;;;;5068925;28;24468;-50
2022/03/14 01:05:34;;;;;;;9.20;8.30;;;;;;;;;;5067485;28;24995;-50
2022/03/14 01:07:59;;;;;;;8.83;7.93;;;;;;;;;;5067507;28;24476;-50
2022/03/14 01:10:24;;;;;;;8.60;7.70;;;;;;;;;;5066662;28;24414;-51
2022/03/14 01:12:49;;;;;;;9.40;7.90;;;;;;;;;;5067461;28;24812;-51
2022/03/14 01:15:15;;;;;;;9.52;8.00;;;;;;;;;;5069113;28;24412;-52
2022/03/14 01:17:40;;;;;;;9.80;8.80;;;;;;;;;;5071645;28;24417;-51
2022/03/14 01:20:06;;;;;;;9.10;7.82;;;;;;;;;;5066296;28;24411;-49
2022/03/14 01:22:31;;;;;;;10.43;8.00;;;;;;;;;;5066631;28;24750;-50
2022/03/14 01:24:57;;;;;;;8.33;7.53;;;;;;;;;;5066181;28;24472;-51
2022/03/14 01:27:22;;;;;;;8.60;7.70;;;;;;;;;;5067532;28;24415;-51
2022/03/14 01:29:47;;;;;;;8.90;7.60;;;;;;;;;;5066728;28;24415;-50
2022/03/14 01:32:12;;;;;;;9.97;8.23;;;;;;;;;;5066956;28;24484;-51
2022/03/14 01:34:37;;;;;;;10.30;8.30;;;;;;;;;;5066558;28;24416;-51
2022/03/14 01:37:03;;;;;;;8.80;7.63;;;;;;;;;;5067002;28;24409;-51
2022/03/14 01:39:28;;;;;;;9.10;8.03;;;;;;;;;;5067330;28;24414;-51
2022/03/14 01:41:55;;;;;;;9.17;8.27;;;;;;;;;;5070524;28;24443;-51
2022/03/14 01:44:20;;;;;;;10.15;8.95;;;;;;;;;;5066726;28;24407;-51
2022/03/14 01:46:45;;;;;;;8.77;7.63;;;;;;;;;;5066851;28;24896;-51
2022/03/14 01:49:11;;;;;;;12.23;8.50;;;;;;;;;;5067444;28;24439;-52
2022/03/14 01:51:36;;;;;;;9.52;7.85;;;;;;;;;;5073717;28;24418;-51
2022/03/14 01:54:02;;;;;;;9.30;8.30;;;;;;;;;;5066632;28;24984;-51
2022/03/14 01:56:27;;;;;;;10.27;9.17;;;;;;;;;;5066471;28;24486;-51
2022/03/14 01:58:53;;;;;;;9.63;8.63;;;;;;;;;;5064764;28;24407;-51
2022/03/14 02:01:21;;;;;;;10.88;9.68;;;;;;;;;;5066481;28;24454;-51
2022/03/14 02:03:50;;;;;;;10.63;9.13;;;;;;;;;;5066110;28;24418;-51
2022/03/14 02:06:15;;;;;;;10.68;9.57;;;;;;;;;;5066257;28;24526;-51
2022/03/14 02:08:40;;;;;;;10.02;9.02;;;;;;;;;;5066859;28;25332;-51
2022/03/14 02:11:05;;;;;;;11.10;9.07;;;;;;;;;;5065805;28;24481;-51
2022/03/14 02:13:30;;;;;;;9.10;8.20;;;;;;;;;;5066339;28;24468;-50
2022/03/14 02:15:55;;;;;;;8.43;7.53;;;;;;;;;;5066447;28;25000;-51
2022/03/14 02:18:20;;;;;;;10.30;8.60;;;;;;;;;;5065659;28;24408;-51
2022/03/14 02:20:46;;;;;;;8.77;7.93;;;;;;;;;;5066240;28;25010;-51
2022/03/14 02:23:11;;;;;;;9.38;8.07;;;;;;;;;;5066442;28;24418;-50
2022/03/14 02:25:46;;;;;;;9.70;8.47;;;;;;;;;;5066127;28;24770;-50
2022/03/14 02:28:12;;;;;;;9.50;8.20;;;;;;;;;;5063804;28;24948;-51
2022/03/14 02:30:37;;;;;;;9.60;8.63;;;;;;;;;;5066218;28;24457;-50
2022/03/14 02:33:03;;;;;;;10.15;8.35;;;;;;;;;;5066997;28;24998;-50
2022/03/14 02:35:28;;;;;;;10.53;8.77;;;;;;;;;;5066451;28;24418;-51
2022/03/14 02:37:53;;;;;;;11.10;8.70;;;;;;;;;;5066143;28;24415;-51
2022/03/14 02:40:18;;;;;;;9.30;8.30;;;;;;;;;;5066844;28;24413;-50
2022/03/14 02:42:43;;;;;;;10.73;8.65;;;;;;;;;;5068934;28;24427;-50
2022/03/14 02:45:09;;;;;;;9.47;8.20;;;;;;;;;;5065835;28;24801;-50
2022/03/14 02:47:34;;;;;;;10.07;8.70;;;;;;;;;;5065549;28;24538;-50
2022/03/14 02:50:00;;;;;;;8.93;7.78;;;;;;;;;;5066344;28;24406;-50
2022/03/14 02:52:25;;;;;;;10.23;9.00;;;;;;;;;;5065783;28;24449;-50
2022/03/14 02:54:52;;;;;;;11.70;9.00;;;;;;;;;;5065774;28;24410;-50
2022/03/14 02:57:19;;;;;;;9.80;8.80;;;;;;;;;;5066143;28;24442;-50
2022/03/14 02:59:44;;;;;;;10.48;9.38;;;;;;;;;;5063174;28;24515;-50
2022/03/14 03:02:10;;;;;;;9.20;8.30;;;;;;;;;;5066267;28;24664;-50
2022/03/14 03:04:35;;;;;;;10.27;8.98;;;;;;;;;;5067754;28;24410;-51
2022/03/14 03:07:00;;;;;;;10.90;8.63;;;;;;;;;;5066693;28;24431;-53
2022/03/14 03:09:26;;;;;;;9.93;8.70;;;;;;;;;;5065483;28;24445;-50
2022/03/14 03:11:53;;;;;;;10.75;9.60;;;;;;;;;;5064117;28;24514;-50
2022/03/14 03:14:18;;;;;;;10.88;9.40;;;;;;;;;;5065460;28;24414;-50
2022/03/14 03:16:43;;;;;;;11.05;8.70;;;;;;;;;;5068144;28;24773;-51
2022/03/14 03:19:08;;;;;;;9.40;8.40;;;;;;;;;;5069723;28;24456;-51
2022/03/14 03:21:38;;;;;;;11.02;9.48;;;;;;;;;;5068728;28;24426;-51
2022/03/14 03:24:06;;;;;;;11.60;9.32;;;;;;;;;;5070114;28;24813;-51
2022/03/14 03:26:31;;;;;;;9.90;8.80;;;;;;;;;;5071554;28;24534;-50
2022/03/14 03:28:56;;;;;;;12.27;9.50;;;;;;;;;;5069714;28;24505;-50
2022/03/14 03:31:21;;;;;;;11.07;8.93;;;;;;;;;;5069972;28;24429;-50
2022/03/14 03:33:47;;;;;;;9.90;8.90;;;;;;;;;;5069493;28;24414;-51
2022/03/14 03:36:12;;;;;;;10.43;9.15;;;;;;;;;;5071037;28;24411;-50
2022/03/14 03:38:38;;;;;;;10.40;9.30;;;;;;;;;;5077785;28;24425;-51
2022/03/14 03:41:03;;;;;;;10.23;8.80;;;;;;;;;;5069113;28;24453;-50
2022/03/14 03:43:28;;;;;;;10.60;8.93;;;;;;;;;;5069003;28;25095;-50
2022/03/14 03:45:54;;;;;;;11.27;10.07;;;;;;;;;;5074262;28;24410;-50
2022/03/14 03:48:20;;;;;;;10.82;9.70;;;;;;;;;;5074307;28;24743;-51
2022/03/14 03:50:45;;;;;;;11.00;8.80;;;;;;;;;;5069218;28;24994;-50
2022/03/14 03:53:11;;;;;;;10.13;8.97;;;;;;;;;;5069224;28;24411;-50
2022/03/14 03:55:36;;;;;;;10.87;9.50;;;;;;;;;;5069086;28;24515;-55
2022/03/14 03:58:02;;;;;;;9.77;8.88;;;;;;;;;;5073341;28;24503;-50
2022/03/14 04:00:27;;;;;;;10.70;9.00;;;;;;;;;;5070300;28;24456;-50
2022/03/14 04:02:52;;;;;;;9.77;8.82;;;;;;;;;;5068708;28;24480;-50
2022/03/14 04:05:18;;;;;;;9.13;8.20;;;;;;;;;;5070078;28;24422;-50
2022/03/14 04:07:43;;;;;;;10.67;9.30;;;;;;;;;;5068941;28;24419;-50
2022/03/14 04:10:09;;;;;;;10.53;9.20;;;;;;;;;;5068817;28;24425;-50
2022/03/14 04:12:34;;;;;;;11.10;9.70;;;;;;;;;;5065501;28;25049;-51
2022/03/14 04:15:06;;;;;;;10.10;9.10;;;;;;;;;;5063713;28;24506;-50
2022/03/14 04:17:32;;;;;;;9.73;8.73;;;;;;;;;;5064819;28;24403;-51
2022/03/14 04:20:00;;;;;;;9.40;8.10;;;;;;;;;;5066544;28;24429;-51
2022/03/14 04:22:25;;;;;;;10.95;9.00;;;;;;;;;;5068606;28;24426;-50
2022/03/14 04:24:50;;;;;;;11.45;9.27;;;;;;;;;;5065592;28;24427;-50
2022/03/14 04:27:15;;;;;;;9.90;8.90;;;;;;;;;;5066536;28;24468;-51
2022/03/14 04:29:40;;;;;;;10.23;9.13;;;;;;;;;;5081041;28;25040;-51
2022/03/14 04:32:06;;;;;;;10.50;9.40;;;;;;;;;;5068843;28;25082;-51
2022/03/14 04:34:32;;;;;;;11.10;9.37;;;;;;;;;;5075555;28;24410;-50
2022/03/14 04:36:58;;;;;;;10.60;8.85;;;;;;;;;;5071528;28;24498;-50
2022/03/14 04:39:23;;;;;;;10.80;9.00;;;;;;;;;;5069811;28;24498;-51
2022/03/14 04:41:49;;;;;;;10.10;9.00;;;;;;;;;;5068070;28;24622;-51
2022/03/14 04:44:14;;;;;;;10.60;9.50;;;;;;;;;;5067628;28;24521;-51
2022/03/14 04:46:39;;;;;;;10.40;9.02;;;;;;;;;;5067891;28;24991;-51
2022/03/14 04:49:04;;;;;;;11.30;9.20;;;;;;;;;;5067814;28;25000;-50
2022/03/14 04:51:31;;;;;;;10.80;9.37;;;;;;;;;;5067414;28;24782;-50
2022/03/14 04:53:56;;;;;;;10.73;9.63;;;;;;;;;;5067391;28;24411;-51
2022/03/14 04:56:21;;;;;;;9.98;8.55;;;;;;;;;;5066777;28;24484;-51
2022/03/14 04:58:47;;;;;;;10.90;9.57;;;;;;;;;;5067612;28;25178;-50
2022/03/14 05:01:12;;;;;;;9.40;8.50;;;;;;;;;;5066622;28;24422;-51
2022/03/14 05:03:37;;;;;;;10.13;8.50;;;;;;;;;;5067041;28;24422;-52
2022/03/14 05:06:02;;;;;;;10.10;9.00;;;;;;;;;;5066837;28;24896;-50
2022/03/14 05:08:27;;;;;;;9.20;8.30;;;;;;;;;;5067067;28;24493;-50
2022/03/14 05:10:52;;;;;;;10.77;9.00;;;;;;;;;;5066994;28;25113;-51
2022/03/14 05:13:18;;;;;;;10.18;9.07;;;;;;;;;;5067729;28;24461;-50
2022/03/14 05:15:43;;;;;;;12.03;9.27;;;;;;;;;;5067593;28;24423;-51
2022/03/14 05:18:08;;;;;;;12.43;10.33;;;;;;;;;;5067361;28;24773;-52
2022/03/14 05:20:36;;;;;;;12.03;10.20;;;;;;;;;;5068161;28;24544;-51
2022/03/14 05:23:01;;;;;;;15.07;10.93;;;;;;;;;;5065786;28;24414;-51
2022/03/14 05:25:27;;;;;;;11.60;10.43;;;;;;;;;;5057850;28;24411;-51
2022/03/14 05:27:54;;;;;;;9.80;8.82;;;;;;;;;;5067031;28;24972;-51
2022/03/14 05:30:19;;;;;;;10.50;9.20;;;;;;;;;;5068090;28;24948;-51
2022/03/14 05:32:44;;;;;;;11.67;9.80;;;;;;;;;;5068646;28;24434;-51
2022/03/14 05:35:11;;;;;;;9.97;8.90;;;;;;;;;;5068403;28;24592;-51
2022/03/14 05:37:40;;;;;;;11.32;9.30;;;;;;;;;;5060393;28;24489;-51
2022/03/14 05:40:06;;;;;;;10.45;9.20;;;;;;;;;;5063135;28;24438;-51
2022/03/14 05:42:31;;;;;;;10.60;9.27;;;;;;;;;;5062730;28;24443;-51
2022/03/14 05:44:56;;;;;;;10.70;9.60;;;;;;;;;;5062052;28;24410;-52
2022/03/14 05:47:22;;;;;;;10.45;9.10;;;;;;;;;;5057541;28;24504;-51
2022/03/14 05:49:47;;;;;;;10.40;9.02;;;;;;;;;;5064160;28;24422;-51
2022/03/14 05:52:14;;;;;;;10.93;9.23;;;;;;;;;;5063988;28;24427;-52
2022/03/14 05:54:39;;;;;;;9.73;8.40;;;;;;;;;;5062829;28;25437;-51
2022/03/14 05:57:04;;;;;;;10.50;9.10;;;;;;;;;;5063916;28;24425;-52
2022/03/14 05:59:30;;;;;;;10.30;9.20;;;;;;;;;;5064328;28;24415;-51
2022/03/14 06:01:55;;;;;;;10.30;8.93;;;;;;;;;;5063916;28;24629;-50
2022/03/14 06:04:20;;;;;;;10.95;9.20;;;;;;;;;;5063793;28;24423;-52
2022/03/14 06:06:46;;;;;;;11.70;9.16;;;;;;;;;;5063087;28;24492;-51
2022/03/14 06:09:11;;;;;;;10.63;9.52;;;;;;;;;;5063525;28;24461;-51
2022/03/14 06:11:38;;;;;;;9.60;8.60;;;;;;;;;;5063517;28;24459;-52
2022/03/14 06:14:03;;;;;;;12.50;9.32;;;;;;;;;;5062866;28;24418;-52
2022/03/14 06:16:28;;;;;;;12.40;9.07;;;;;;;;;;5062965;28;24411;-52
2022/03/14 06:18:53;;;;;;;12.07;9.18;;;;;;;;;;5063072;28;24468;-51
2022/03/14 06:21:19;;;;;;;12.47;9.80;;;;;;;;;;5066697;28;24415;-52
2022/03/14 06:23:44;;;;;;;9.13;8.23;;;;;;;;;;5066601;28;25394;-51
2022/03/14 06:26:10;;;;;;;10.10;8.80;;;;;;;;;;5066150;28;24418;-52
2022/03/14 06:28:35;;;;;;;9.43;8.43;;;;;;;;;;5047181;28;24395;-51
2022/03/14 06:31:00;;;;;;;11.45;8.93;;;;;;;;;;5047128;28;24438;-52
2022/03/14 06:33:25;;;;;;;10.90;8.75;;;;;;;;;;5046914;28;24430;-52
2022/03/14 06:35:51;;;;;;;11.57;9.40;;;;;;;;;;5047243;28;24400;-57
2022/03/14 06:38:16;;;;;;;10.00;8.83;;;;;;;;;;5046595;28;24423;-51
2022/03/14 06:40:42;;;;;;;10.48;8.93;;;;;;;;;;5065565;28;24850;-52
2022/03/14 06:43:10;;;;;;;11.13;9.43;;;;;;;;;;5066968;28;24472;-52
2022/03/14 06:45:35;;;;;;;9.70;8.68;;;;;;;;;;5066760;28;24472;-51
2022/03/14 06:48:01;;;;;;;10.93;9.25;;;;;;;;;;5067198;28;24978;-51
2022/03/14 06:50:27;;;;;;;9.95;8.85;;;;;;;;;;5067099;28;24402;-52
2022/03/14 06:52:52;;;;;;;12.48;9.18;;;;;;;;;;5070616;28;24545;-52
2022/03/14 06:55:17;;;;;;;10.73;8.82;;;;;;;;;;5070271;28;24474;-52
2022/03/14 06:57:43;;;;;;;11.33;9.80;;;;;;;;;;5071096;28;24391;-52
2022/03/14 07:00:08;;;;;;;10.20;9.10;;;;;;;;;;5070862;28;24482;-51
2022/03/14 07:02:35;;;;;;;10.38;9.27;;;;;;;;;;5070877;28;24490;-52
2022/03/14 07:05:00;;;;;;;10.70;8.57;;;;;;;;;;5069464;28;24414;-51
2022/03/14 07:07:25;;;;;;;12.13;9.17;;;;;;;;;;5069049;28;24440;-52
2022/03/14 07:09:50;;;;;;;10.07;8.93;;;;;;;;;;5069992;28;24497;-52
2022/03/14 07:12:16;;;;;;;9.75;8.70;;;;;;;;;;5068535;28;24423;-51
2022/03/14 07:14:41;;;;;;;9.67;8.40;;;;;;;;;;5068167;28;24418;-52
2022/03/14 07:17:07;;;;;;;12.05;10.10;;;;;;;;;;5069618;28;24422;-52
2022/03/14 07:19:32;;;;;;;10.90;9.20;;;;;;;;;;5070147;28;24508;-52
2022/03/14 07:21:57;;;;;;;9.93;8.83;;;;;;;;;;5069018;28;24508;-52
2022/03/14 07:24:23;;;;;;;11.48;9.15;;;;;;;;;;5065116;28;24468;-51
2022/03/14 07:26:48;;;;;;;10.90;9.13;;;;;;;;;;5065727;28;24513;-51
2022/03/14 07:29:14;;;;;;;10.10;9.10;;;;;;;;;;5066726;28;24502;-51
2022/03/14 07:31:41;;;;;;;10.90;9.13;;;;;;;;;;5063332;28;24431;-51
2022/03/14 07:34:06;;;;;;;10.85;9.60;;;;;;;;;;5069968;28;24930;-51
2022/03/14 07:36:34;;;;;;;12.25;9.35;;;;;;;;;;5069347;28;24414;-51
2022/03/14 07:38:59;;;;;;;10.70;9.40;;;;;;;;;;5068479;28;24460;-52
2022/03/14 07:41:24;;;;;;;10.80;9.60;;;;;;;;;;5067112;28;24419;-52
2022/03/14 07:43:49;;;;;;;10.23;9.07;;;;;;;;;;5070225;28;24468;-52
2022/03/14 07:46:15;;;;;;;10.07;9.07;;;;;;;;;;5069100;28;24850;-50
2022/03/14 07:48:40;;;;;;;11.45;8.95;;;;;;;;;;5069077;28;24411;-50
2022/03/14 07:51:06;;;;;;;12.45;9.77;;;;;;;;;;5068383;28;24829;-50
2022/03/14 07:53:31;;;;;;;10.98;9.32;;;;;;;;;;5066071;28;24411;-50
2022/03/14 07:55:56;;;;;;;10.40;9.40;;;;;;;;;;5069715;28;24447;-51
2022/03/14 07:58:22;;;;;;;10.57;8.70;;;;;;;;;;5069570;28;24741;-50
2022/03/14 08:00:47;;;;;;;11.83;9.40;;;;;;;;;;5069791;28;24493;-51
2022/03/14 08:03:16;;;;;;;10.73;9.63;;;;;;;;;;5068941;28;24516;-51
2022/03/14 08:05:42;;;;;;;11.07;9.77;;;;;;;;;;5069864;28;24545;-50
2022/03/14 08:08:08;;;;;;;11.05;9.88;;;;;;;;;;5069355;28;24750;-50
2022/03/14 08:10:36;;;;;;;10.00;9.00;;;;;;;;;;5069260;28;24390;-50
2022/03/14 08:13:01;;;;;;;11.52;9.38;;;;;;;;;;5069424;28;25155;-50
2022/03/14 08:15:33;;;;;;;10.83;9.40;;;;;;;;;;5068919;28;24423;-50
2022/03/14 08:18:01;;;;;;;10.90;9.73;;;;;;;;;;5069163;28;24384;-50
2022/03/14 08:20:27;;;;;;;11.80;10.00;;;;;;;;;;5068964;28;24394;-50
2022/03/14 08:22:54;;;;;;;10.90;9.80;;;;;;;;;;5069269;28;24407;-53
2022/03/14 08:25:20;;;;;;;12.52;9.55;;;;;;;;;;5069220;28;24943;-50
2022/03/14 08:27:46;;;;;;;11.38;9.90;;;;;;;;;;5068501;28;24422;-49
2022/03/14 08:30:11;;;;;;;11.57;10.10;;;;;;;;;;5068081;28;24422;-50
2022/03/14 08:32:39;;;;;;;11.03;9.53;;;;;;;;;;5068393;28;24483;-50
2022/03/14 08:35:07;;;;;;;10.55;9.45;;;;;;;;;;5068950;28;24787;-50
2022/03/14 08:37:41;;;;;;;13.07;10.00;;;;;;;;;;5068746;28;24469;-50
2022/03/14 08:40:07;;;;;;;11.50;10.27;;;;;;;;;;5068986;28;24498;-50
2022/03/14 08:42:33;;;;;;;11.60;10.02;;;;;;;;;;5068685;28;24426;-50
2022/03/14 08:44:58;;;;;;;13.57;10.70;;;;;;;;;;5068937;28;24391;-49
2022/03/14 08:47:24;;;;;;;12.00;9.57;;;;;;;;;;5068135;28;24552;-51
2022/03/14 08:49:49;;;;;;;12.50;9.80;;;;;;;;;;5068885;28;24394;-51
2022/03/14 08:52:14;;;;;;;11.63;10.07;;;;;;;;;;5068213;28;25042;-50
2022/03/14 08:54:39;;;;;;;11.02;9.80;;;;;;;;;;5068446;28;24457;-50
2022/03/14 08:57:04;;;;;;;11.40;10.20;;;;;;;;;;5068449;28;24402;-50
2022/03/14 08:59:30;;;;;;;12.50;10.47;;;;;;;;;;5068387;28;24484;-51
2022/03/14 09:01:55;;;;;;;11.20;9.97;;;;;;;;;;5068083;28;24589;-64
2022/03/14 09:04:20;;;;;;;12.40;10.40;;;;;;;;;;5068467;28;24398;-51
2022/03/14 09:06:45;;;;;;;13.10;10.48;;;;;;;;;;5068321;28;24386;-50
2022/03/14 09:09:11;;;;;;;11.52;10.32;;;;;;;;;;5068860;28;24927;-51
2022/03/14 09:11:37;;;;;;;13.20;10.53;;;;;;;;;;5068052;28;25588;-50
2022/03/14 09:14:02;;;;;;;10.82;9.73;;;;;;;;;;5067938;28;24422;-50
2022/03/14 09:16:28;;;;;;;11.50;10.20;;;;;;;;;;5065657;28;24391;-51
2022/03/14 09:18:53;;;;;;;11.90;10.38;;;;;;;;;;5066638;28;24954;-51
2022/03/14 09:21:19;;;;;;;12.70;9.90;;;;;;;;;;5067793;28;24464;-51
2022/03/14 09:23:45;;;;;;;11.55;10.20;;;;;;;;;;5067963;28;24638;-51
2022/03/14 09:26:10;;;;;;;10.73;9.40;;;;;;;;;;5067777;28;24909;-51
2022/03/14 09:28:36;;;;;;;10.30;9.30;;;;;;;;;;5068105;28;24390;-51
2022/03/14 09:31:02;;;;;;;12.65;11.35;;;;;;;;;;5067574;28;24466;-51
2022/03/14 09:33:27;;;;;;;12.70;10.88;;;;;;;;;;5067661;28;24414;-51
2022/03/14 09:35:52;;;;;;;11.30;10.20;;;;;;;;;;5068186;28;24399;-51
2022/03/14 09:38:17;;;;;;;11.25;10.13;;;;;;;;;;5067961;28;24794;-51
2022/03/14 09:40:43;;;;;;;11.13;9.93;;;;;;;;;;5067935;28;24461;-52
2022/03/14 09:43:09;;;;;;;14.55;10.98;;;;;;;;;;5066731;28;24545;-51
2022/03/14 09:45:35;;;;;;;10.60;9.50;;;;;;;;;;5067535;28;24529;-50
2022/03/14 09:48:02;;;;;;;11.52;10.43;;;;;;;;;;5067589;28;24929;-51
2022/03/14 09:50:32;;;;;;;12.82;10.52;;;;;;;;;;5067322;28;24561;-52
2022/03/14 09:52:58;;;;;;;11.83;10.50;;;;;;;;;;5067113;28;24421;-51
2022/03/14 09:55:24;;;;;;;12.18;10.38;;;;;;;;;;5067634;28;24468;-51
2022/03/14 09:57:50;;;;;;;10.85;9.75;;;;;;;;;;5067269;28;24952;-51
2022/03/14 10:00:15;;;;;;;13.90;11.03;;;;;;;;;;5067592;28;24394;-51
2022/03/14 10:02:41;;;;;;;12.27;10.97;;;;;;;;;;5067148;28;25260;-51
2022/03/14 10:05:08;;;;;;;11.33;10.13;;;;;;;;;;5067577;28;24428;-51
2022/03/14 10:07:36;;;;;;;11.82;10.52;;;;;;;;;;5067209;28;24390;-52
2022/03/14 10:10:04;;;;;;;13.20;11.30;;;;;;;;;;5067391;28;24429;-51
2022/03/14 10:12:30;;;;;;;13.10;11.77;;;;;;;;;;5066715;28;24441;-51
2022/03/14 10:14:55;;;;;;;12.63;11.33;;;;;;;;;;5066771;28;25092;-51
2022/03/14 10:17:20;;;;;;;13.95;11.30;;;;;;;;;;5067286;28;24398;-52
2022/03/14 10:19:55;;;;;;;13.83;11.37;;;;;;;;;;5067233;28;25030;-52
2022/03/14 10:22:21;;;;;;;11.97;10.50;;;;;;;;;;5067130;28;24463;-51
2022/03/14 10:24:48;;;;;;;12.00;10.80;;;;;;;;;;5066341;28;24825;-51
2022/03/14 10:27:16;;;;;;;12.30;11.00;;;;;;;;;;5067165;28;24399;-51
2022/03/14 10:29:42;;;;;;;12.40;11.20;;;;;;;;;;5066868;28;24990;-51
2022/03/14 10:32:29;;;;;;;13.90;10.83;;;;;;;;;;5066863;28;24472;-51
2022/03/14 10:34:57;;;;;;;13.18;11.88;;;;;;;;;;5067121;28;24493;-51
2022/03/14 10:37:25;;;;;;;14.60;12.32;;;;;;;;;;5066695;28;24383;-51
2022/03/14 10:39:55;;;;;;;15.00;11.50;;;;;;;;;;5066827;28;24770;-51
2022/03/14 10:42:20;;;;;;;12.70;10.70;;;;;;;;;;5066812;28;24526;-51
2022/03/14 10:44:47;;;;;;;11.30;10.20;;;;;;;;;;5066300;28;24622;-51
2022/03/14 10:47:13;;;;;;;11.05;9.95;;;;;;;;;;5066963;28;24394;-52
2022/03/14 10:49:39;;;;;;;11.30;10.20;;;;;;;;;;5066726;28;24628;-51
2022/03/14 10:52:08;;;;;;;12.50;11.30;;;;;;;;;;5066632;28;24426;-52
2022/03/14 10:54:40;;;;;;;11.45;10.35;;;;;;;;;;5066640;28;24985;-51
2022/03/14 10:57:09;;;;;;;10.40;9.40;;;;;;;;;;5066387;28;24995;-51
2022/03/14 10:59:42;;;;;;;11.25;10.00;;;;;;;;;;5066757;28;24437;-52
2022/03/14 11:02:08;;;;;;;10.02;9.02;;;;;;;;;;5067055;28;24442;-51
2022/03/14 11:04:42;;;;;;;10.90;9.80;;;;;;;;;;5066784;28;24445;-51
2022/03/14 11:07:07;;;;;;;10.70;9.70;;;;;;;;;;5066443;28;24419;-52
2022/03/14 11:09:39;;;;;;;11.83;10.63;;;;;;;;;;5066076;28;24402;-52
2022/03/14 11:12:07;;;;;;;11.38;10.20;;;;;;;;;;5066436;28;24422;-52
2022/03/14 11:14:32;;;;;;;12.50;11.30;;;;;;;;;;5066583;28;24395;-52
2022/03/14 11:17:09;;;;;;;12.98;11.77;;;;;;;;;;5066075;28;24971;-50
2022/03/14 11:19:34;;;;;;;11.98;10.77;;;;;;;;;;5066262;28;24677;-51
2022/03/14 11:21:59;;;;;;;13.27;12.03;;;;;;;;;;5066707;28;24441;-50
2022/03/14 11:24:24;;;;;;;11.60;10.50;;;;;;;;;;5066453;28;24394;-51
2022/03/14 11:26:50;;;;;;;11.30;10.30;;;;;;;;;;5065614;28;24497;-50
2022/03/14 11:29:15;;;;;;;11.35;10.30;;;;;;;;;;5066200;28;24769;-51
2022/03/14 11:31:45;;;;;;;11.20;10.20;;;;;;;;;;5066078;28;24415;-51
2022/03/14 11:34:11;;;;;;;11.00;9.90;;;;;;;;;;5066349;28;24636;-52
2022/03/14 11:36:37;;;;;;;11.43;10.30;;;;;;;;;;5066730;28;24466;-52
2022/03/14 11:39:02;;;;;;;16.38;12.40;;;;;;;;;;5069828;28;24414;-51
2022/03/14 11:41:27;;;;;;;14.80;12.73;;;;;;;;;;5069942;28;24776;-51
2022/03/14 11:43:53;;;;;;;14.43;13.03;;;;;;;;;;5070620;28;24397;-51
2022/03/14 11:46:18;;;;;;;12.95;11.65;;;;;;;;;;5069617;28;24621;-51
2022/03/14 11:48:44;;;;;;;13.00;11.70;;;;;;;;;;5068838;28;24426;-52
2022/03/14 11:51:11;;;;;;;12.43;11.33;;;;;;;;;;5069627;28;24937;-51
2022/03/14 11:53:36;;;;;;;13.00;11.70;;;;;;;;;;5069801;28;24422;-51
2022/03/14 11:56:05;;;;;;;12.98;11.68;;;;;;;;;;5069950;28;24917;-50
2022/03/14 11:58:33;;;;;;;11.47;10.37;;;;;;;;;;5069182;28;24422;-52
2022/03/14 12:00:58;;;;;;;11.18;10.07;;;;;;;;;;5068940;28;24433;-51
2022/03/14 12:03:36;;;;;;;11.33;10.17;;;;;;;;;;5069404;28;24425;-52
2022/03/14 12:06:02;;;;;;;12.18;10.98;;;;;;;;;;5069668;28;24996;-50
2022/03/14 12:08:27;;;;;;;12.43;11.23;;;;;;;;;;5069240;28;24514;-51
2022/03/14 12:10:52;;;;;;;11.30;10.30;;;;;;;;;;5068895;28;24525;-51
2022/03/14 12:13:36;;;;;;;11.53;10.43;;;;;;;;;;5069215;28;24726;-51
2022/03/14 12:16:01;;;;;;;12.27;11.15;;;;;;;;;;5069663;28;24399;-51
2022/03/14 12:18:26;;;;;;;12.68;11.13;;;;;;;;;;5068890;28;24892;-53
2022/03/14 12:20:54;;;;;;;11.80;10.70;;;;;;;;;;5068905;28;24403;-51
2022/03/14 12:23:23;;;;;;;12.20;11.02;;;;;;;;;;5069112;28;24440;-51
2022/03/14 12:25:48;;;;;;;11.57;10.57;;;;;;;;;;5068929;28;24953;-51
2022/03/14 12:28:23;;;;;;;11.53;10.43;;;;;;;;;;5068736;28;24514;-52
2022/03/14 12:30:48;;;;;;;11.75;10.65;;;;;;;;;;5068558;28;24506;-51
2022/03/14 12:33:28;;;;;;;11.80;10.70;;;;;;;;;;5069308;28;24637;-51
2022/03/14 12:35:53;;;;;;;13.50;12.20;;;;;;;;;;5068710;28;24378;-51
2022/03/14 12:38:21;;;;;;;12.88;10.90;;;;;;;;;;5068770;28;24885;-52
2022/03/14 12:40:47;;;;;;;13.63;12.32;;;;;;;;;;5068137;28;24501;-52
2022/03/14 12:43:31;;;;;;;11.55;10.45;;;;;;;;;;5068687;28;24419;-51
2022/03/14 12:46:00;;;;;;;12.82;11.50;;;;;;;;;;5068548;28;24398;-52
2022/03/14 12:48:33;;;;;;;11.82;10.73;;;;;;;;;;5067088;28;24382;-51
2022/03/14 12:51:08;;;;;;;11.00;10.00;;;;;;;;;;5068038;28;25088;-51
2022/03/14 12:53:33;;;;;;;12.50;11.30;;;;;;;;;;5048757;28;24527;-50
2022/03/14 12:56:00;;;;;;;11.60;10.45;;;;;;;;;;5048236;28;24505;-51
2022/03/14 12:58:29;;;;;;;13.38;11.93;;;;;;;;;;5048422;28;24404;-51
2022/03/14 13:00:58;;;;;;;13.20;11.90;;;;;;;;;;5048314;28;24901;-54
2022/03/14 13:03:25;;;;;;;12.33;11.23;;;;;;;;;;5064734;28;24445;-51
2022/03/14 13:05:50;;;;;;;12.40;11.20;;;;;;;;;;5068390;28;24494;-51
2022/03/14 13:08:16;;;;;;;11.93;10.83;;;;;;;;;;5068430;28;24513;-51
2022/03/14 13:10:43;;;;;;;13.07;11.98;;;;;;;;;;5068271;28;25163;-51
2022/03/14 13:13:09;;;;;;;13.57;12.38;;;;;;;;;;5049677;28;24422;-51
2022/03/14 13:15:38;;;;;;;13.10;11.88;;;;;;;;;;5068222;28;24398;-51
2022/03/14 13:18:17;;;;;;;13.40;12.10;;;;;;;;;;5067662;28;24397;-51
2022/03/14 13:20:42;;;;;;;14.27;12.77;;;;;;;;;;5068110;28;24394;-51
2022/03/14 13:23:15;;;;;;;13.63;12.40;;;;;;;;;;5068163;28;24391;-52
2022/03/14 13:25:43;;;;;;;12.70;11.52;;;;;;;;;;5067283;28;24442;-51
2022/03/14 13:28:11;;;;;;;13.70;12.30;;;;;;;;;;5067663;28;24411;-51
2022/03/14 13:30:41;;;;;;;14.10;12.80;;;;;;;;;;5067610;28;24913;-52
2022/03/14 13:33:26;;;;;;;14.70;13.00;;;;;;;;;;5068243;28;24493;-51
2022/03/14 13:35:52;;;;;;;15.70;14.10;;;;;;;;;;5067555;28;24789;-51
2022/03/14 13:38:37;;;;;;;16.55;14.85;;;;;;;;;;5066540;28;24411;-52
2022/03/14 13:41:03;;;;;;;15.13;13.73;;;;;;;;;;5067923;28;24395;-51
2022/03/14 13:43:29;;;;;;;16.90;15.07;;;;;;;;;;5067373;28;24460;-51
2022/03/14 13:46:13;;;;;;;15.65;14.15;;;;;;;;;;5067580;28;24402;-50
2022/03/14 13:48:48;;;;;;;15.90;14.30;;;;;;;;;;5067600;28;24403;-50
2022/03/14 13:51:13;;;;;;;19.20;15.25;;;;;;;;;;5047834;28;24552;-51
2022/03/14 13:53:43;;;;;;;23.30;15.50;;;;;;;;;;5047029;28;24485;-51
2022/03/14 13:56:09;;;;;;;15.95;14.35;;;;;;;;;;5047281;28;24922;-53
2022/03/14 13:58:36;;;;;;;16.60;14.25;;;;;;;;;;5047342;28;24542;-51
2022/03/14 14:01:01;;;;;;;15.05;13.65;;;;;;;;;;5047581;28;24383;-50
2022/03/14 14:03:26;;;;;;;13.05;11.85;;;;;;;;;;5067680;28;24774;-51
2022/03/14 14:05:52;;;;;;;13.50;12.10;;;;;;;;;;5067032;28;24476;-51
2022/03/14 14:08:28;;;;;;;12.40;11.00;;;;;;;;;;5067366;28;24859;-51
2022/03/14 14:10:53;;;;;;;14.30;12.85;;;;;;;;;;5067224;28;24387;-51
2022/03/14 14:13:19;;;;;;;29.20;15.30;;;;;;;;;;5066969;28;24727;-52
2022/03/14 14:15:45;;;;;;;13.30;11.83;;;;;;;;;;5067073;28;24461;-52
2022/03/14 14:18:15;;;;;;;13.43;12.13;;;;;;;;;;5067313;28;25040;-50
2022/03/14 14:20:40;;;;;;;13.70;11.82;;;;;;;;;;5067131;28;24955;-50
2022/03/14 14:23:07;;;;;;;16.80;12.70;;;;;;;;;;5066950;28;24403;-50